Skip Navigation LinksHome page > Tools > METAR decoder Skip Navigation Links

METAR decoder

Settings

METAR

Chicago O'Hare Intl, Chicago

For information only: do not use for flight planning or navigation.
Latest weather
Observation time Friday, August 18, 2017 11:51 PM CDT
Local time Saturday, August 19, 2017 12:21 AM CDT
Flight conditions Visual Meteorological Conditions
Winds
Wind direction North-Northwest (330°)
Wind speed 9 mph
Visibility 10 mi.
Sky condition
Ceiling 7,500 ft. broken clouds
Cloud layer few clouds 5,000 ft.
Cloud layer broken clouds 7,500 ft.
Cloud layer broken clouds 10,000 ft.
Temperature 72°F
Dewpoint 59°F
Altimeter 29.89 in.Hg
Derived measurements
Relative humidity 64%
Density altitude 1778 ft.
Sea-level pressure 29.88 in.Hg
Remarks
Automated weather observing station with precipitation discriminator.
METAR KORD 190451Z 33008KT 10SM FEW050 BKN075 BKN100 22/15 A2989 RMK AO2 SLP117 T02220150

InnerDrive.Weather 4.0.6144.1 Release CLR 4.0.30319.36366
Copyright ©2015 Inner Drive Technology. All rights reserved. Portions Copyright ©1986-2015 David Braverman.

Find weather

Site navigation


Skip Navigation Links

Place info

Page info

PayPal - The safer, easier way to pay online!

Return home.

Copyright ©2017 Inner Drive Technology. Purveyors of fine, hand-crafted computer software. Page printed 2017-08-19T05:21:50 UTC.